TimePDT,TemperatureF,Dew PointF,Humidity,Sea Level PressureIn,VisibilityMPH,Wind Direction,Wind SpeedMPH,Gust SpeedMPH,PrecipitationIn,Events,Conditions,WindDirDegrees,DateUTC
12:53 AM,63.0,51.1,65,29.89,10.0,SW,6.9,-,N/A,,Clear,230,2012-09-29 07:53:00
1:53 AM,61.0,51.1,70,29.91,10.0,Calm,Calm,-,N/A,,Clear,0,2012-09-29 08:53:00
2:53 AM,59.0,51.1,75,29.91,10.0,SW,4.6,-,N/A,,Clear,220,2012-09-29 09:53:00
3:53 AM,59.0,51.1,75,29.91,10.0,SW,8.1,-,N/A,,Clear,230,2012-09-29 10:53:00
4:53 AM,57.9,51.1,78,29.93,10.0,Calm,Calm,-,N/A,,Clear,0,2012-09-29 11:53:00
5:53 AM,57.0,51.1,81,29.95,10.0,Calm,Calm,-,N/A,,Clear,0,2012-09-29 12:53:00
6:53 AM,57.0,51.1,81,29.96,10.0,SW,3.5,-,N/A,,Clear,230,2012-09-29 13:53:00
7:53 AM,57.9,51.1,78,29.99,10.0,Calm,Calm,-,N/A,,Clear,0,2012-09-29 14:53:00
8:53 AM,64.0,52.0,65,30.01,10.0,Calm,Calm,-,N/A,,Clear,0,2012-09-29 15:53:00
9:53 AM,69.1,52.0,54,30.02,10.0,Calm,Calm,-,N/A,,Clear,0,2012-09-29 16:53:00
10:53 AM,75.0,53.1,46,30.01,10.0,Calm,Calm,-,N/A,,Clear,0,2012-09-29 17:53:00
11:53 AM,82.9,52.0,34,30.00,10.0,Variable,3.5,-,N/A,,Clear,0,2012-09-29 18:53:00
12:53 PM,84.9,52.0,32,29.99,10.0,SE,4.6,-,N/A,,Clear,140,2012-09-29 19:53:00
1:53 PM,88.0,51.1,28,29.97,10.0,Variable,3.5,-,N/A,,Clear,0,2012-09-29 20:53:00
2:53 PM,91.0,48.9,23,29.95,10.0,Variable,3.5,-,N/A,,Clear,0,2012-09-29 21:53:00
3:53 PM,91.9,48.9,23,29.94,10.0,Variable,6.9,-,N/A,,Clear,0,2012-09-29 22:53:00
4:53 PM,91.9,46.9,21,29.92,10.0,SW,5.8,-,N/A,,Clear,220,2012-09-29 23:53:00
5:53 PM,91.0,46.0,21,29.91,10.0,SSW,5.8,-,N/A,,Clear,210,2012-09-30 00:53:00
6:53 PM,84.0,50.0,31,29.92,10.0,WSW,4.6,-,N/A,,Clear,240,2012-09-30 01:53:00
7:53 PM,73.9,48.0,40,29.94,10.0,Calm,Calm,-,N/A,,Clear,0,2012-09-30 02:53:00
8:53 PM,71.1,48.9,45,29.96,10.0,Calm,Calm,-,N/A,,Clear,0,2012-09-30 03:53:00
9:53 PM,68.0,48.9,50,29.97,10.0,Calm,Calm,-,N/A,,Clear,0,2012-09-30 04:53:00
10:53 PM,66.9,48.9,52,29.97,10.0,Calm,Calm,-,N/A,,Clear,0,2012-09-30 05:53:00
11:53 PM,63.0,48.9,60,29.98,10.0,Calm,Calm,-,N/A,,Clear,0,2012-09-30 06:53:00